Time;durP1;ratioP1;P1;durP2;ratioP2;P2;SDS_P1;SDS_P2;PMS_P1;PMS_P2;Temp;Humidity;BMP_temperature;BMP_pressure;BME280_temperature;BME280_humidity;BME280_pressure;Samples;Min_cycle;Max_cycle;Signal;HPM_P1;HPM_P2
2022/05/23 00:00:26;;;;;;;2.20;1.50;;;18.80;99.90;;;;;;5086833;28;20785;-88
2022/05/23 00:02:54;;;;;;;2.13;2.00;;;18.80;99.90;;;;;;5086203;28;20735;-88
2022/05/23 00:05:20;;;;;;;1.53;1.43;;;18.80;99.90;;;;;;5087333;28;21186;-88
2022/05/23 00:07:49;;;;;;;3.30;1.97;;;18.70;99.90;;;;;;5077093;28;20631;-88
2022/05/23 00:10:20;;;;;;;1.73;1.63;;;18.60;99.90;;;;;;5079577;28;20682;-88
2022/05/23 00:12:49;;;;;;;3.03;1.73;;;18.60;99.90;;;;;;5082087;28;20760;-88
2022/05/23 00:15:16;;;;;;;1.90;1.63;;;18.50;99.90;;;;;;5084804;28;21205;-88
2022/05/23 00:17:43;;;;;;;3.10;2.17;;;18.50;99.90;;;;;;5085671;28;20620;-88
2022/05/23 00:20:14;;;;;;;1.90;1.80;;;18.50;99.90;;;;;;5087191;28;20656;-88
2022/05/23 00:22:41;;;;;;;1.90;1.70;;;18.50;99.90;;;;;;5085618;28;20735;-88
2022/05/23 00:25:10;;;;;;;1.50;1.40;;;18.50;99.90;;;;;;5085343;28;20624;-88
2022/05/23 00:27:39;;;;;;;1.90;1.53;;;18.50;99.90;;;;;;5085950;28;20628;-88
2022/05/23 00:30:10;;;;;;;1.50;1.40;;;18.50;99.90;;;;;;5084005;28;20749;-88
2022/05/23 00:35:21;;;;;;;2.27;1.60;;;18.50;99.90;;;;;;5082205;28;20621;-88
2022/05/23 00:37:51;;;;;;;2.17;1.70;;;18.50;99.90;;;;;;5084660;28;21024;-89
2022/05/23 00:40:35;;;;;;;1.80;1.70;;;18.40;99.90;;;;;;5082572;28;20652;-87
2022/05/23 00:43:15;;;;;;;2.10;1.40;;;18.40;99.90;;;;;;5086836;28;20782;-88
2022/05/23 00:45:46;;;;;;;1.80;1.70;;;18.30;99.90;;;;;;5083344;28;20700;-88
2022/05/23 00:48:15;;;;;;;5.63;2.27;;;18.30;99.90;;;;;;5083889;28;20632;-88
2022/05/23 00:50:47;;;;;;;1.97;1.40;;;18.20;99.90;;;;;;5083865;28;21052;-88
2022/05/23 00:53:15;;;;;;;2.10;1.80;;;18.10;99.90;;;;;;5086747;28;21187;-88
2022/05/23 00:55:48;;;;;;;1.60;1.50;;;18.10;99.90;;;;;;5076886;28;20633;-88
2022/05/23 00:58:21;;;;;;;3.57;1.60;;;18.10;99.90;;;;;;5082704;28;20690;-89
2022/05/23 01:00:51;;;;;;;2.47;1.77;;;18.10;99.90;;;;;;5081305;28;20729;-88
2022/05/23 01:03:20;;;;;;;2.93;1.80;;;18.10;99.90;;;;;;5084630;28;20643;-88
2022/05/23 01:05:48;;;;;;;1.70;1.60;;;18.00;99.90;;;;;;5085133;28;20643;-88
2022/05/23 01:08:16;;;;;;;1.97;1.77;;;18.00;99.90;;;;;;5081603;28;20628;-88
2022/05/23 01:10:44;;;;;;;1.70;1.60;;;18.00;99.90;;;;;;5081284;28;20706;-88
2022/05/23 01:13:10;;;;;;;1.90;1.80;;;17.90;99.90;;;;;;5082243;28;21166;-88
2022/05/23 01:15:39;;;;;;;2.43;1.97;;;17.90;99.90;;;;;;5084825;28;21274;-88
2022/05/23 01:18:07;;;;;;;2.13;1.90;;;17.90;99.90;;;;;;5084151;28;20632;-87
2022/05/23 01:20:34;;;;;;;2.73;2.07;;;17.80;99.90;;;;;;5084346;28;20958;-88
2022/05/23 01:23:12;;;;;;;2.23;2.00;;;17.80;99.90;;;;;;5086793;28;20631;-87
2022/05/23 01:25:43;;;;;;;2.77;1.83;;;17.80;99.90;;;;;;5084035;28;20635;-88
2022/05/23 01:28:11;;;;;;;2.80;2.03;;;17.70;99.90;;;;;;5088320;28;21007;-87
2022/05/23 01:30:40;;;;;;;2.90;1.60;;;17.70;99.90;;;;;;5088593;28;20741;-87
2022/05/23 01:33:08;;;;;;;2.20;2.00;;;17.70;99.90;;;;;;5088370;28;20639;-87
2022/05/23 01:35:35;;;;;;;2.97;1.73;;;17.70;99.90;;;;;;5086051;28;20624;-86
2022/05/23 01:38:02;;;;;;;3.33;1.80;;;17.60;99.90;;;;;;5086609;28;21001;-87
2022/05/23 01:40:29;;;;;;;2.67;2.00;;;17.60;99.90;;;;;;5090543;28;21021;-87
2022/05/23 01:42:58;;;;;;;2.07;1.70;;;17.60;99.90;;;;;;5085244;28;20627;-87
2022/05/23 01:45:27;;;;;;;2.13;1.57;;;17.60;99.90;;;;;;5084827;28;20628;-87
2022/05/23 01:47:54;;;;;;;2.57;2.10;;;17.60;99.90;;;;;;5083737;28;21179;-87
2022/05/23 01:50:21;;;;;;;2.03;1.93;;;17.50;99.90;;;;;;5084076;28;21102;-87
2022/05/23 01:52:48;;;;;;;1.83;1.73;;;17.60;99.90;;;;;;5088710;28;20635;-88
2022/05/23 01:55:15;;;;;;;1.80;1.70;;;17.50;99.90;;;;;;5086915;28;20632;-88
2022/05/23 01:57:41;;;;;;;1.87;1.77;;;17.50;99.90;;;;;;5087003;28;21031;-87
2022/05/23 02:02:57;;;;;;;1.70;1.60;;;17.40;99.90;;;;;;5085070;28;21220;-88
2022/05/23 02:05:25;;;;;;;2.50;2.30;;;17.40;99.90;;;;;;5089109;28;20627;-87
2022/05/23 02:07:52;;;;;;;2.30;2.07;;;17.40;99.90;;;;;;5088635;28;20635;-87
2022/05/23 02:10:19;;;;;;;3.77;1.70;;;17.40;99.90;;;;;;5088350;28;20678;-87
2022/05/23 02:12:46;;;;;;;1.87;1.50;;;17.40;99.90;;;;;;5083747;28;20654;-87
2022/05/23 02:15:15;;;;;;;2.27;2.07;;;17.40;99.90;;;;;;5087731;28;20624;-87
2022/05/23 02:17:43;;;;;;;2.57;2.10;;;17.50;99.90;;;;;;5088033;28;20628;-87
2022/05/23 02:20:11;;;;;;;2.47;2.23;;;17.50;99.90;;;;;;5085425;28;20640;-87
2022/05/23 02:22:38;;;;;;;2.00;1.90;;;17.40;99.90;;;;;;5086208;28;20624;-88
2022/05/23 02:25:06;;;;;;;2.03;1.83;;;17.50;99.90;;;;;;5084675;28;20624;-87
2022/05/23 02:27:32;;;;;;;2.93;2.40;;;17.40;99.90;;;;;;5083354;28;20620;-88
2022/05/23 02:29:59;;;;;;;2.40;1.90;;;17.50;99.90;;;;;;5087018;28;21109;-88
2022/05/23 02:32:28;;;;;;;1.93;1.60;;;17.50;99.90;;;;;;5086745;28;20643;-88
2022/05/23 02:34:54;;;;;;;1.47;1.40;;;17.40;99.90;;;;;;5084745;28;20632;-87
2022/05/23 02:37:21;;;;;;;2.87;2.07;;;17.40;99.90;;;;;;5080679;28;20625;-87
2022/05/23 02:39:48;;;;;;;2.47;2.10;;;17.40;99.90;;;;;;5082015;28;21027;-88
2022/05/23 02:42:15;;;;;;;1.90;1.80;;;17.40;99.90;;;;;;5088340;28;20616;-87
2022/05/23 02:44:42;;;;;;;2.37;2.27;;;17.40;99.90;;;;;;5079327;28;20629;-87
2022/05/23 02:47:08;;;;;;;2.50;2.13;;;17.40;99.90;;;;;;5084898;28;20650;-87
2022/05/23 02:49:36;;;;;;;2.20;2.07;;;17.30;99.90;;;;;;5085718;28;20648;-88
2022/05/23 02:52:04;;;;;;;2.63;1.80;;;17.30;99.90;;;;;;5085290;28;20631;-88
2022/05/23 02:54:31;;;;;;;2.47;2.20;;;17.30;99.90;;;;;;5076676;28;20624;-88
2022/05/23 02:56:58;;;;;;;3.37;1.50;;;17.20;99.90;;;;;;5084946;28;20620;-87
2022/05/23 02:59:25;;;;;;;3.07;2.23;;;17.20;99.90;;;;;;5082643;28;20640;-87
2022/05/23 03:04:37;;;;;;;2.47;1.90;;;17.10;99.90;;;;;;5086772;28;21165;-88
2022/05/23 03:07:05;;;;;;;2.13;1.70;;;17.20;99.90;;;;;;5082624;28;20635;-88
2022/05/23 03:09:32;;;;;;;3.40;1.90;;;17.20;99.90;;;;;;5084219;28;20643;-87
2022/05/23 03:12:00;;;;;;;4.03;2.00;;;17.20;99.90;;;;;;5084127;28;20751;-88
2022/05/23 03:14:27;;;;;;;2.70;1.97;;;17.20;99.90;;;;;;5083512;28;20633;-88
2022/05/23 03:16:54;;;;;;;2.67;1.93;;;17.30;99.90;;;;;;5082394;28;21252;-87
2022/05/23 03:19:21;;;;;;;2.07;1.90;;;17.20;99.90;;;;;;5085500;28;20970;-87
2022/05/23 03:27:18;;;;;;;3.27;2.03;;;17.30;99.90;;;;;;5081226;28;20608;-89
2022/05/23 03:29:45;;;;;;;1.80;1.70;;;17.30;99.90;;;;;;5092864;28;20664;-89
2022/05/23 03:32:13;;;;;;;2.03;1.90;;;17.30;99.90;;;;;;5105293;28;20648;-86
2022/05/23 03:34:40;;;;;;;2.37;1.97;;;17.30;99.90;;;;;;5085421;28;20691;-87
2022/05/23 03:37:08;;;;;;;1.90;1.80;;;17.30;99.90;;;;;;5083846;28;20632;-89
2022/05/23 03:39:37;;;;;;;2.30;2.00;;;17.30;99.90;;;;;;5082814;28;20656;-87
2022/05/23 03:42:05;;;;;;;3.20;1.90;;;17.20;99.90;;;;;;5080091;28;20631;-87
2022/05/23 03:44:32;;;;;;;5.10;2.20;;;17.30;99.90;;;;;;5086340;28;20628;-87
2022/05/23 03:46:58;;;;;;;3.30;2.90;;;17.30;99.90;;;;;;5082643;28;20628;-90
2022/05/23 03:49:25;;;;;;;4.60;2.23;;;17.30;99.90;;;;;;5079545;28;20643;-89
2022/05/23 03:51:52;;;;;;;1.40;1.30;;;17.30;99.90;;;;;;5082297;28;20667;-89
2022/05/23 03:54:20;;;;;;;2.00;1.90;;;17.30;99.90;;;;;;5087338;28;20673;-87
2022/05/23 03:56:47;;;;;;;2.20;2.00;;;17.30;99.90;;;;;;5082743;28;20635;-87
2022/05/23 03:59:14;;;;;;;2.53;2.33;;;17.30;99.90;;;;;;5086080;28;20624;-87
2022/05/23 04:01:41;;;;;;;2.80;2.00;;;17.30;99.90;;;;;;5086450;28;20623;-87
2022/05/23 04:04:07;;;;;;;2.20;2.00;;;17.30;99.90;;;;;;5081047;28;20641;-87
2022/05/23 04:06:35;;;;;;;3.40;1.80;;;17.30;99.90;;;;;;5083899;28;20631;-87
2022/05/23 04:09:02;;;;;;;2.00;1.90;;;17.40;99.90;;;;;;5079005;28;20629;-87
2022/05/23 04:11:30;;;;;;;1.13;1.13;;;17.60;99.90;;;;;;5081127;28;20679;-89
2022/05/23 04:13:57;;;;;;;3.47;3.17;;;17.70;99.90;;;;;;5081597;28;20631;-88
2022/05/23 04:16:27;;;;;;;3.53;2.20;;;17.80;99.90;;;;;;5087042;28;20638;-87
2022/05/23 04:18:54;;;;;;;5.33;2.87;;;17.80;99.90;;;;;;5084764;28;20616;-87
2022/05/23 04:21:21;;;;;;;2.83;2.63;;;17.70;99.90;;;;;;5079616;28;21254;-87
2022/05/23 04:23:48;;;;;;;4.70;2.60;;;17.70;99.90;;;;;;5081423;28;20631;-87
2022/05/23 04:26:15;;;;;;;2.40;2.07;;;17.70;99.90;;;;;;5090107;28;20691;-88
2022/05/23 04:28:44;;;;;;;1.87;1.77;;;17.50;99.90;;;;;;5103498;28;20643;-87
2022/05/23 04:31:11;;;;;;;2.30;2.10;;;17.50;99.90;;;;;;5106345;28;20672;-87
2022/05/23 04:36:22;;;;;;;2.77;2.57;;;17.80;99.90;;;;;;5102323;28;20618;-87
2022/05/23 04:38:49;;;;;;;4.40;2.30;;;17.60;99.90;;;;;;5106525;28;20600;-87
2022/05/23 04:41:16;;;;;;;2.40;2.10;;;17.60;99.90;;;;;;5108912;28;20648;-88
2022/05/23 04:43:44;;;;;;;1.60;1.50;;;17.80;99.90;;;;;;5107839;28;21609;-87
2022/05/23 04:46:12;;;;;;;2.03;1.77;;;17.80;99.90;;;;;;5106535;28;21158;-87
2022/05/23 04:51:23;;;;;;;6.37;2.17;;;18.00;99.90;;;;;;5109676;28;20698;-87
2022/05/23 04:53:53;;;;;;;3.87;2.60;;;18.00;99.90;;;;;;5095473;28;20621;-88
2022/05/23 04:56:20;;;;;;;3.93;2.70;;;18.00;99.90;;;;;;5091782;28;20739;-89
2022/05/23 04:58:50;;;;;;;2.70;2.17;;;17.90;99.90;;;;;;5093333;28;20629;-88
2022/05/23 05:01:17;;;;;;;5.20;3.10;;;17.70;99.90;;;;;;5102333;28;20643;-88
2022/05/23 05:03:44;;;;;;;4.40;2.00;;;17.70;99.90;;;;;;5092424;28;20624;-89
2022/05/23 05:06:11;;;;;;;1.80;1.70;;;17.80;99.90;;;;;;5092957;28;20620;-89
2022/05/23 05:08:38;;;;;;;2.10;1.80;;;17.90;99.90;;;;;;5095874;28;20616;-88
2022/05/23 05:11:06;;;;;;;1.70;1.60;;;18.00;99.90;;;;;;5091245;28;20679;-89
2022/05/23 05:13:35;;;;;;;2.70;1.77;;;18.00;99.90;;;;;;5093144;28;20943;-89
2022/05/23 05:16:05;;;;;;;3.70;1.73;;;18.00;99.90;;;;;;5090686;28;20636;-88
2022/05/23 05:18:33;;;;;;;3.10;2.43;;;18.10;99.90;;;;;;5086466;28;21297;-88
2022/05/23 05:21:04;;;;;;;2.83;1.93;;;18.00;99.90;;;;;;5090345;28;20648;-88
2022/05/23 05:23:31;;;;;;;5.13;2.13;;;17.90;99.90;;;;;;5089092;28;20994;-88
2022/05/23 05:25:57;;;;;;;2.30;2.00;;;18.00;99.90;;;;;;5085664;28;20740;-88
2022/05/23 05:28:24;;;;;;;2.10;1.90;;;18.00;99.90;;;;;;5090230;28;20634;-88
2022/05/23 05:30:56;;;;;;;2.23;2.13;;;17.90;99.90;;;;;;5090650;28;20685;-88
2022/05/23 05:33:30;;;;;;;2.47;2.00;;;17.90;99.90;;;;;;5089823;28;21032;-90
2022/05/23 05:36:04;;;;;;;4.60;2.27;;;18.00;99.90;;;;;;5090681;28;20615;-89
2022/05/23 05:38:37;;;;;;;2.10;2.00;;;18.00;99.90;;;;;;5090579;28;20626;-89
2022/05/23 05:41:10;;;;;;;2.47;2.27;;;18.10;99.90;;;;;;5084315;28;20640;-89
2022/05/23 05:43:40;;;;;;;1.60;1.40;;;18.10;99.90;;;;;;5080278;28;20727;-89
2022/05/23 05:46:13;;;;;;;1.40;1.27;;;18.30;99.90;;;;;;5091258;28;20636;-89
2022/05/23 05:48:42;;;;;;;3.50;2.03;;;18.40;99.90;;;;;;5083094;28;20821;-89
2022/05/23 05:51:10;;;;;;;3.20;2.73;;;18.40;99.90;;;;;;5089266;28;21141;-88
2022/05/23 05:53:37;;;;;;;5.33;2.40;;;18.30;99.90;;;;;;5086805;28;20624;-89
2022/05/23 05:56:05;;;;;;;3.47;2.07;;;18.20;99.90;;;;;;5090475;28;20632;-88
2022/05/23 05:58:34;;;;;;;4.20;2.17;;;18.20;99.90;;;;;;5083976;28;21276;-88
2022/05/23 06:01:01;;;;;;;6.70;2.60;;;18.30;99.90;;;;;;5081148;28;20649;-88
2022/05/23 06:03:28;;;;;;;2.73;2.53;;;18.10;99.90;;;;;;5091729;28;20643;-88
2022/05/23 06:11:26;;;;;;;1.70;1.60;;;17.70;99.90;;;;;;5087573;28;21256;-88
2022/05/23 06:13:57;;;;;;;1.80;1.70;;;17.80;99.90;;;;;;5085548;28;20669;-87
2022/05/23 06:16:23;;;;;;;1.47;1.40;;;18.30;99.90;;;;;;5077820;28;20616;-87
2022/05/23 06:18:51;;;;;;;1.73;1.60;;;18.60;99.90;;;;;;5083563;28;20702;-89
2022/05/23 06:21:19;;;;;;;4.70;3.10;;;19.00;99.90;;;;;;5085691;28;20648;-88
2022/05/23 06:23:47;;;;;;;2.10;1.50;;;19.10;99.90;;;;;;5085310;28;20625;-87
2022/05/23 06:26:15;;;;;;;5.23;3.83;;;19.10;99.90;;;;;;5091184;28;20635;-88
2022/05/23 06:28:42;;;;;;;3.50;2.80;;;19.20;99.90;;;;;;5079223;28;20609;-89
2022/05/23 06:31:10;;;;;;;4.00;3.17;;;19.10;99.90;;;;;;5084961;28;21416;-89
2022/05/23 06:33:37;;;;;;;3.50;3.20;;;18.70;99.90;;;;;;5090987;28;20692;-89
2022/05/23 06:36:15;;;;;;;3.30;2.13;;;18.50;99.90;;;;;;5088998;28;20649;-88
2022/05/23 06:38:43;;;;;;;2.97;2.77;;;18.30;99.90;;;;;;5091146;28;20635;-88
2022/05/23 06:41:12;;;;;;;3.13;2.80;;;18.60;99.90;;;;;;5088824;28;20644;-88
2022/05/23 06:43:41;;;;;;;3.97;2.60;;;18.20;99.90;;;;;;5082721;28;20640;-88
2022/05/23 06:46:08;;;;;;;6.33;3.53;;;18.20;99.90;;;;;;5086188;28;21174;-88
2022/05/23 06:48:35;;;;;;;6.20;3.50;;;18.10;99.90;;;;;;5083559;28;20625;-88
2022/05/23 06:51:02;;;;;;;6.00;3.67;;;18.00;99.90;;;;;;5083692;28;20647;-88
2022/05/23 06:53:30;;;;;;;3.20;2.43;;;18.40;99.90;;;;;;5083295;28;21143;-88
2022/05/23 06:56:01;;;;;;;3.80;3.03;;;18.40;99.90;;;;;;5083382;28;20631;-88
2022/05/23 06:58:27;;;;;;;7.03;2.50;;;18.80;99.90;;;;;;5082151;28;21209;-88
2022/05/23 07:00:55;;;;;;;5.73;3.37;;;18.70;99.90;;;;;;5090535;28;20678;-88
2022/05/23 07:03:22;;;;;;;2.77;2.40;;;18.50;99.90;;;;;;5088012;28;20643;-88
2022/05/23 07:14:05;;;;;;;4.37;2.80;;;19.00;99.90;;;;;;5081573;28;20615;-88
2022/05/23 07:16:34;;;;;;;2.63;2.43;;;19.30;99.90;;;;;;5086126;28;20625;-88
2022/05/23 07:19:02;;;;;;;2.87;2.57;;;19.30;99.90;;;;;;5084734;28;20724;-88
2022/05/23 07:21:31;;;;;;;2.83;2.60;;;19.50;99.90;;;;;;5086377;28;20648;-88
2022/05/23 07:23:58;;;;;;;3.17;2.97;;;19.70;99.90;;;;;;5078250;28;20724;-87
2022/05/23 07:26:27;;;;;;;4.33;3.07;;;19.70;99.90;;;;;;5083541;28;21061;-87
2022/05/23 07:28:55;;;;;;;3.43;2.87;;;19.60;99.90;;;;;;5078338;28;20621;-87
2022/05/23 07:31:22;;;;;;;6.90;2.50;;;19.70;99.90;;;;;;5082964;28;20676;-87
2022/05/23 07:33:49;;;;;;;4.20;2.50;;;19.60;99.90;;;;;;5081154;28;20640;-87
2022/05/23 07:36:16;;;;;;;2.20;2.03;;;19.70;99.90;;;;;;5077287;28;21059;-87
2022/05/23 07:38:43;;;;;;;3.80;3.20;;;19.80;99.90;;;;;;5080582;28;20624;-87
2022/05/23 07:41:12;;;;;;;3.00;2.70;;;19.70;99.90;;;;;;5081127;28;20658;-87
2022/05/23 07:43:42;;;;;;;3.13;2.80;;;19.70;99.90;;;;;;5087234;28;20693;-88
2022/05/23 07:46:13;;;;;;;3.63;3.10;;;19.70;99.90;;;;;;5081958;28;20658;-88
2022/05/23 07:48:42;;;;;;;3.17;2.87;;;19.60;99.90;;;;;;5088507;28;20624;-87
2022/05/23 07:51:11;;;;;;;3.93;2.67;;;19.80;99.90;;;;;;5082311;28;20651;-88
2022/05/23 08:01:53;;;;;;;3.43;2.20;;;20.10;99.90;;;;;;5084313;28;21138;-88
2022/05/23 08:04:21;;;;;;;3.37;2.80;;;20.30;99.90;;;;;;5083221;28;20650;-88
2022/05/23 08:06:48;;;;;;;3.07;2.33;;;20.30;99.90;;;;;;5083001;28;20642;-87
2022/05/23 08:09:17;;;;;;;1.40;1.30;;;20.50;99.90;;;;;;5076957;28;20735;-88
2022/05/23 08:11:46;;;;;;;2.30;2.00;;;20.70;99.90;;;;;;5083091;28;21083;-88
2022/05/23 08:14:14;;;;;;;2.07;1.93;;;20.80;99.90;;;;;;5079664;28;21002;-88
2022/05/23 08:16:42;;;;;;;2.90;2.43;;;20.90;99.90;;;;;;5080669;28;20621;-87
2022/05/23 08:19:09;;;;;;;2.13;1.87;;;20.80;99.90;;;;;;5085342;28;20627;-88
2022/05/23 08:21:46;;;;;;;3.47;2.63;;;20.90;99.90;;;;;;5086370;28;20625;-88
2022/05/23 08:24:13;;;;;;;5.23;2.90;;;21.10;99.90;;;;;;5075917;28;20639;-88
2022/05/23 08:26:40;;;;;;;2.97;2.67;;;21.00;99.90;;;;;;5086795;28;20627;-88
2022/05/23 08:29:06;;;;;;;2.90;2.30;;;21.10;99.90;;;;;;5078775;28;20646;-88
2022/05/23 08:31:36;;;;;;;3.27;2.73;;;21.00;99.90;;;;;;5077682;28;20660;-87
2022/05/23 08:34:02;;;;;;;2.53;2.33;;;21.10;99.90;;;;;;5081979;28;20635;-88
2022/05/23 08:36:29;;;;;;;6.57;3.77;;;21.10;99.90;;;;;;5090409;28;20984;-88
2022/05/23 08:38:56;;;;;;;2.00;1.90;;;20.90;99.90;;;;;;5080813;28;20620;-88
2022/05/23 08:41:29;;;;;;;3.30;3.07;;;20.90;99.90;;;;;;5083609;28;20659;-88
2022/05/23 08:44:05;;;;;;;3.70;2.93;;;21.20;99.90;;;;;;5083682;28;20633;-88
2022/05/23 08:46:38;;;;;;;3.77;3.37;;;21.10;99.90;;;;;;5089626;28;20647;-88
2022/05/23 08:49:09;;;;;;;1.87;1.77;;;21.10;99.90;;;;;;5085333;28;21260;-89
2022/05/23 08:51:42;;;;;;;3.60;3.30;;;21.10;99.90;;;;;;5085150;28;20630;-88
2022/05/23 08:54:19;;;;;;;4.10;3.70;;;21.30;99.90;;;;;;5085379;28;20647;-88
2022/05/23 08:56:51;;;;;;;3.33;2.40;;;21.10;99.90;;;;;;5084801;28;20630;-88
2022/05/23 08:59:25;;;;;;;5.23;3.60;;;21.00;99.90;;;;;;5085987;28;20647;-88
2022/05/23 09:01:58;;;;;;;3.13;2.83;;;21.00;99.90;;;;;;5084150;28;20739;-88
2022/05/23 09:04:38;;;;;;;3.10;2.80;;;21.10;99.90;;;;;;5081193;28;20663;-87
2022/05/23 09:07:08;;;;;;;3.37;2.87;;;21.00;99.90;;;;;;5083967;28;20639;-89
2022/05/23 09:09:38;;;;;;;3.67;3.00;;;21.10;99.90;;;;;;5081880;28;20670;-88
2022/05/23 09:12:10;;;;;;;4.07;3.23;;;21.30;99.90;;;;;;5087732;28;20668;-88
2022/05/23 09:14:38;;;;;;;4.30;3.20;;;21.30;99.90;;;;;;5086519;28;20685;-89
2022/05/23 09:17:13;;;;;;;6.50;3.60;;;21.30;99.90;;;;;;5084897;28;21009;-89
2022/05/23 09:19:44;;;;;;;4.40;3.53;;;21.30;99.90;;;;;;5085254;28;20651;-88
2022/05/23 09:22:14;;;;;;;6.13;3.53;;;21.20;99.90;;;;;;5088323;28;20620;-88
2022/05/23 09:24:44;;;;;;;4.80;3.20;;;21.10;99.90;;;;;;5083735;28;20616;-89
2022/05/23 09:27:17;;;;;;;4.27;3.87;;;21.20;99.90;;;;;;5084391;28;20628;-88
2022/05/23 09:29:49;;;;;;;5.37;3.20;;;21.10;99.90;;;;;;5082238;28;20673;-89
2022/05/23 09:32:20;;;;;;;5.40;2.90;;;21.10;99.90;;;;;;5080158;28;20637;-88
2022/05/23 09:34:50;;;;;;;8.93;4.17;;;21.10;99.90;;;;;;5084823;28;20621;-89
2022/05/23 09:37:21;;;;;;;5.90;2.87;;;21.20;99.90;;;;;;5081148;28;20640;-89
2022/05/23 09:39:56;;;;;;;10.57;3.13;;;21.40;99.90;;;;;;5086085;28;20705;-88
2022/05/23 09:48:12;;;;;;;3.73;3.43;;;21.50;99.90;;;;;;5087916;28;20638;-88
2022/05/23 09:50:42;;;;;;;4.03;3.63;;;21.70;99.90;;;;;;5088248;28;20663;-89
2022/05/23 09:53:18;;;;;;;35.07;5.00;;;21.90;99.90;;;;;;5092496;27;20656;-89
2022/05/23 09:55:49;;;;;;;3.70;3.40;;;22.10;99.90;;;;;;5091684;28;21152;-89
2022/05/23 09:58:25;;;;;;;4.17;3.80;;;22.20;99.90;;;;;;5086954;28;21274;-88
2022/05/23 10:01:07;;;;;;;10.30;3.50;;;22.40;99.90;;;;;;5085532;28;20643;-88
2022/05/23 10:03:47;;;;;;;7.43;3.60;;;22.50;99.90;;;;;;5089884;28;20690;-89
2022/05/23 10:06:15;;;;;;;3.77;3.47;;;22.70;99.90;;;;;;5088584;28;20624;-89
2022/05/23 10:08:44;;;;;;;8.87;3.97;;;22.90;99.90;;;;;;5091368;28;20628;-89
2022/05/23 10:11:22;;;;;;;5.70;3.77;;;23.00;99.90;;;;;;5101061;28;20651;-89
2022/05/23 10:13:52;;;;;;;4.07;3.70;;;23.00;99.90;;;;;;5089574;28;21311;-89
2022/05/23 10:16:26;;;;;;;4.50;3.43;;;23.10;99.90;;;;;;5087516;28;20722;-89
2022/05/23 10:19:00;;;;;;;4.87;3.53;;;23.20;99.90;;;;;;5086702;28;20737;-89
2022/05/23 10:21:31;;;;;;;5.53;3.00;;;23.40;99.90;;;;;;5096900;28;20662;-89
2022/05/23 10:24:10;;;;;;;5.70;3.40;;;23.50;99.90;;;;;;5093439;28;20632;-89
2022/05/23 10:26:45;;;;;;;3.73;2.90;;;23.60;99.90;;;;;;5086627;28;21194;-89
2022/05/23 10:29:21;;;;;;;3.67;3.40;;;23.70;99.90;;;;;;5089187;28;21020;-89
2022/05/23 10:31:53;;;;;;;3.27;3.07;;;23.70;99.90;;;;;;5086590;28;20654;-89
2022/05/23 10:34:42;;;;;;;3.67;3.37;;;23.60;99.90;;;;;;5090843;28;20628;-89
2022/05/23 10:37:13;;;;;;;5.47;4.10;;;23.60;99.90;;;;;;5085741;28;20632;-89
2022/05/23 10:42:33;;;;;;;4.83;3.80;;;23.60;99.90;;;;;;5081777;28;20568;-89
2022/05/23 10:45:12;;;;;;;5.73;4.10;;;23.60;99.90;;;;;;5085810;28;20628;-89
2022/05/23 10:47:59;;;;;;;6.03;3.50;;;23.40;99.90;;;;;;5087230;28;20669;-88
2022/05/23 10:50:38;;;;;;;4.20;3.80;;;23.40;99.90;;;;;;5088552;28;20655;-89
2022/05/23 10:53:14;;;;;;;3.60;2.93;;;23.10;99.90;;;;;;5092561;28;20634;-88
2022/05/23 10:55:49;;;;;;;5.90;4.40;;;23.10;99.90;;;;;;5086568;28;21221;-89
2022/05/23 10:58:29;;;;;;;5.00;3.40;;;23.10;99.90;;;;;;5084876;28;20623;-90
2022/05/23 11:01:03;;;;;;;7.90;4.10;;;23.10;99.90;;;;;;5082504;28;20661;-90
2022/05/23 11:03:37;;;;;;;7.93;4.70;;;23.00;99.90;;;;;;5083599;28;20638;-89
2022/05/23 11:06:17;;;;;;;5.70;4.97;;;23.00;99.90;;;;;;5087174;28;20623;-90
2022/05/23 11:09:12;;;;;;;5.30;4.13;;;22.90;99.90;;;;;;5084983;28;20624;-89
2022/05/23 11:11:54;;;;;;;6.07;4.90;;;22.90;99.90;;;;;;5089728;28;20627;-89
2022/05/23 11:14:30;;;;;;;5.37;4.40;;;22.70;99.90;;;;;;5088815;28;20747;-89
2022/05/23 11:17:03;;;;;;;8.57;4.13;;;22.80;99.90;;;;;;5089097;28;20669;-90
2022/05/23 11:19:39;;;;;;;6.03;4.40;;;22.60;99.90;;;;;;5093110;28;21068;-91
2022/05/23 11:22:15;;;;;;;4.97;4.47;;;22.30;99.90;;;;;;5085685;28;20780;-90
2022/05/23 11:24:48;;;;;;;7.50;3.97;;;22.20;99.90;;;;;;5090243;28;20623;-92
2022/05/23 11:35:47;;;;;;;5.23;3.70;;;21.30;99.90;;;;;;5084380;28;20607;-89
2022/05/23 11:38:17;;;;;;;4.20;3.63;;;21.10;99.90;;;;;;5085905;28;20621;-89
2022/05/23 11:41:08;;;;;;;3.57;3.30;;;20.80;99.90;;;;;;5080829;28;20632;-89
2022/05/23 11:43:39;;;;;;;4.57;3.90;;;20.50;99.90;;;;;;5082397;28;20632;-89
2022/05/23 11:46:11;;;;;;;4.37;3.30;;;20.40;99.90;;;;;;5082633;28;20624;-90
2022/05/23 11:48:50;;;;;;;5.33;3.67;;;20.30;99.90;;;;;;5080937;28;20596;-90
2022/05/23 11:51:37;;;;;;;5.60;3.73;;;20.30;99.90;;;;;;5088581;28;20666;-88
2022/05/23 11:54:13;;;;;;;5.50;3.97;;;20.10;99.90;;;;;;5086991;28;20652;-89
2022/05/23 11:57:14;;;;;;;4.80;3.67;;;19.80;99.90;;;;;;5078572;28;21126;-90
2022/05/23 12:03:12;;;;;;;5.10;2.70;;;19.30;99.90;;;;;;5079042;28;20648;-90
2022/05/23 12:05:43;;;;;;;4.90;2.90;;;19.20;99.90;;;;;;5090400;28;20981;-91
2022/05/23 12:08:39;;;;;;;6.03;3.00;;;19.20;99.90;;;;;;5085136;28;20688;-90
2022/05/23 12:11:22;;;;;;;3.30;2.20;;;19.30;99.90;;;;;;5089255;28;20652;-90
2022/05/23 12:14:14;;;;;;;4.37;2.10;;;19.40;99.90;;;;;;5086430;28;20751;-90
2022/05/23 12:16:42;;;;;;;4.97;2.70;;;19.40;99.90;;;;;;5087569;28;20662;-90
2022/05/23 12:19:26;;;;;;;4.80;2.83;;;19.50;99.90;;;;;;5080915;28;21219;-89
2022/05/23 12:21:55;;;;;;;4.50;1.80;;;19.60;99.90;;;;;;5086667;28;20681;-89
2022/05/23 12:24:31;;;;;;;2.30;2.10;;;19.60;99.90;;;;;;5084841;28;20742;-89
2022/05/23 12:27:07;;;;;;;2.77;2.27;;;19.70;99.90;;;;;;5082199;28;20651;-89
2022/05/23 12:29:36;;;;;;;5.13;2.40;;;19.80;99.90;;;;;;5086630;28;20703;-89
2022/05/23 12:32:22;;;;;;;1.70;1.60;;;19.90;99.90;;;;;;5082201;28;20971;-89
2022/05/23 12:34:52;;;;;;;3.70;2.30;;;20.10;99.90;;;;;;5083400;28;20671;-89
2022/05/23 12:37:27;;;;;;;2.87;2.10;;;20.10;99.90;;;;;;5086998;28;20994;-87
2022/05/23 12:40:03;;;;;;;3.70;2.00;;;20.10;99.90;;;;;;5085451;28;21371;-89
2022/05/23 12:42:57;;;;;;;2.40;2.20;;;20.10;99.90;;;;;;5085937;28;21513;-88
2022/05/23 12:45:58;;;;;;;5.23;2.40;;;20.20;99.90;;;;;;5098551;28;20624;-88
2022/05/23 12:48:54;;;;;;;2.93;2.00;;;19.80;99.90;;;;;;5082120;28;20623;-87
2022/05/23 12:51:34;;;;;;;5.10;2.20;;;19.80;99.90;;;;;;5082568;28;20652;-88
2022/05/23 12:54:20;;;;;;;4.10;2.13;;;19.80;99.90;;;;;;5095508;28;21353;-88
2022/05/23 12:59:55;;;;;;;6.00;2.07;;;20.20;99.90;;;;;;5085502;28;20655;-88
2022/05/23 13:02:33;;;;;;;5.13;2.43;;;20.50;99.90;;;;;;5086744;28;20689;-89
2022/05/23 13:05:06;;;;;;;6.50;3.17;;;20.80;99.90;;;;;;5091540;28;20879;-89
2022/05/23 13:07:44;;;;;;;8.10;2.73;;;20.90;99.90;;;;;;5082745;28;20624;-88
2022/05/23 13:10:19;;;;;;;2.60;2.40;;;21.10;99.90;;;;;;5088015;28;20722;-88
2022/05/23 13:13:00;;;;;;;7.97;2.97;;;21.10;99.90;;;;;;5091035;28;21029;-88
2022/05/23 13:15:30;;;;;;;2.97;1.93;;;21.20;99.90;;;;;;5098114;28;21167;-88
2022/05/23 13:23:29;;;;;;;5.50;2.50;;;21.30;99.90;;;;;;5092228;28;20989;-88
2022/05/23 13:25:56;;;;;;;2.77;2.03;;;21.50;99.90;;;;;;5088703;28;20631;-87
2022/05/23 13:28:26;;;;;;;2.70;2.10;;;21.90;99.90;;;;;;5094976;28;20632;-88
2022/05/23 13:30:56;;;;;;;2.07;1.90;;;22.50;99.90;;;;;;5085969;28;20663;-88
2022/05/23 13:33:36;;;;;;;2.23;1.97;;;23.10;99.90;;;;;;5084019;28;20709;-88
2022/05/23 13:36:06;;;;;;;6.93;2.10;;;23.90;99.90;;;;;;5086832;28;20816;-88
2022/05/23 13:38:38;;;;;;;1.93;1.60;;;24.60;99.90;;;;;;5086117;28;20715;-88
2022/05/23 13:41:06;;;;;;;3.43;2.13;;;25.20;99.90;;;;;;5089885;28;20655;-89
2022/05/23 13:43:47;;;;;;;4.93;2.27;;;25.60;99.90;;;;;;5082904;28;20768;-88
2022/05/23 13:46:20;;;;;;;2.33;1.37;;;25.80;99.90;;;;;;5091453;28;20635;-89
2022/05/23 13:48:50;;;;;;;3.77;1.87;;;26.30;99.90;;;;;;5088516;28;20648;-88
2022/05/23 13:51:23;;;;;;;4.23;2.30;;;26.90;99.90;;;;;;5089887;28;20652;-89
2022/05/23 13:53:56;;;;;;;2.37;1.70;;;27.20;99.90;;;;;;5083127;28;20696;-89
2022/05/23 13:56:26;;;;;;;2.27;1.77;;;27.30;99.90;;;;;;5093479;28;20636;-89
2022/05/23 13:58:57;;;;;;;2.30;1.77;;;27.70;98.10;;;;;;5089149;28;20646;-89
2022/05/23 14:01:37;;;;;;;4.30;2.13;;;28.00;98.80;;;;;;5087338;28;20663;-88
2022/05/23 14:04:09;;;;;;;3.93;2.17;;;28.30;97.30;;;;;;5083944;28;20643;-88
2022/05/23 14:06:41;;;;;;;2.80;1.67;;;28.50;96.30;;;;;;5089661;28;20965;-88
2022/05/23 14:09:08;;;;;;;2.37;2.10;;;28.90;95.10;;;;;;5083399;28;20727;-89
2022/05/23 14:11:38;;;;;;;5.63;2.10;;;29.30;95.30;;;;;;5084180;28;21244;-89
2022/05/23 14:14:18;;;;;;;3.17;1.70;;;29.50;94.40;;;;;;5087112;28;20650;-89